Aeroporto :
LOGIN :

Iscrizione | Disclaimer

   EN    FR    IT 

 










Sommario :    VFR   VFR Marginale   IFR   IFR Intensivo   IFR Molto Intensivo
Visibilità : 
Base nubi : 
>= 8 km
>= 3000ft
5 / 8 km
1000 / 3000 ft
1500m / 5 km
500 / 1000 ft
800 / 1500m
200 / 500 ft
< 800m
< 200 ft
Simboli :   Temporali  Nebbia  Neve Forte  Precipitazioni Forti  Vento > 20 kt
SIGMETs :   Varie  Temporali  Ghiacco  Turbolenza  Onda orograficha  Ceneri Vulcaniche







- Altitudine del aeroporto : 584 ft
- Carte del aeroporto


LFPV - Villacoublay Vélizy

ULTIMO METAR :
  • 260530Z AUTO 23003KT 9999 NSC 07/05 Q1012

METARs OBSOLETI :
  • 260500Z AUTO 21003KT CAVOK 06/05 Q1011 TEMPO 3500 BR OVC003
  • 260430Z AUTO 25003KT 210V280 CAVOK 05/05 Q1011 TEMPO 3500 BR OVC003
  • 260400Z AUTO VRB02KT CAVOK 06/05 Q1010 TEMPO 3500 BR OVC003
  • 260330Z AUTO 22003KT 170V240 CAVOK 07/05 Q1010 TEMPO 3500 BR OVC003
  • 260300Z AUTO VRB03KT CAVOK 07/05 Q1010 TEMPO 3500 BR OVC003

TAF TAF LFPV
Valido dal 26 a 03 ore il 27 a 03 ore UTC


260200Z 2603/2703 19008KT CAVOK
TEMPO 2603/2606 3500 BR
PROB30
TEMPO 2603/2606 OVC003
TEMPO 2611/2619 BKN040TCU
PROB40
TEMPO 2612/2619 20015G25KT 4000 SHRA
BECMG 2700/2702 BKN014
Nessun NOTAM noto per questo aeroporto.



MetMap, La meteo Aeronautica in un colpo d'occhio ! - Copyright ORBIFLY Dicembre 2007 - Disclaimer

ORBIFLY MET'MAP TEAM :

Programmazione e sviluppo : Alexandra Zaïnal
Concezione e sviluppo : Baudouin d'Aumeries
Co-Programmazione e sviluppo : Marc-Olivier Méhu
Supporto tecnico e logistico : Manuel Goepfert
Aiuto per la traduzione : Arnaldo La Scala

Contatto : metmap@orbifly.com




FONTI E CREDITI :

   NOAA